createdAt,value
2018-06-22T00:02:11.199Z,47.20
2018-06-22T00:04:39.472Z,47.30
2018-06-22T00:07:07.736Z,47.90
2018-06-22T00:12:03.994Z,47.80
2018-06-22T00:14:32.253Z,47.50
2018-06-22T00:17:00.520Z,47.90
2018-06-22T00:19:28.777Z,48.20
2018-06-22T00:21:57.080Z,48.10
2018-06-22T00:24:25.477Z,48.50
2018-06-22T00:26:53.733Z,49.10
2018-06-22T00:29:22.010Z,48.80
2018-06-22T00:31:50.310Z,48.90
2018-06-22T00:34:18.905Z,48.60
2018-06-22T00:36:47.185Z,48.30
2018-06-22T00:39:15.426Z,49.40
2018-06-22T00:41:43.695Z,49.50
2018-06-22T00:44:12.001Z,50.10
2018-06-22T00:46:40.256Z,50.30
2018-06-22T00:49:08.537Z,49.90
2018-06-22T00:51:36.806Z,50.40
2018-06-22T00:54:16.053Z,50.20
2018-06-22T00:56:44.381Z,50.80
2018-06-22T00:59:13.128Z,50.60
2018-06-22T01:01:41.420Z,50.90
2018-06-22T01:04:10.593Z,51.50
2018-06-22T01:06:38.869Z,51.50
2018-06-22T01:09:08.899Z,51.60
2018-06-22T01:11:37.178Z,51.80
2018-06-22T01:14:05.544Z,52.60
2018-06-22T01:16:33.794Z,52.30
2018-06-22T01:19:02.062Z,53.00
2018-06-22T01:21:30.328Z,52.80
2018-06-22T01:23:58.660Z,52.90
2018-06-22T01:26:26.967Z,53.00
2018-06-22T01:29:01.482Z,53.00
2018-06-22T01:31:29.770Z,53.40
2018-06-22T01:33:58.152Z,53.10
2018-06-22T01:36:26.755Z,53.70
2018-06-22T01:38:55.078Z,53.30
2018-06-22T01:41:23.548Z,53.80
2018-06-22T01:43:51.858Z,54.20
2018-06-22T01:46:20.165Z,53.90
2018-06-22T01:48:48.610Z,54.20
2018-06-22T01:51:16.981Z,54.10
2018-06-22T01:53:45.358Z,54.40
2018-06-22T01:56:13.687Z,54.40
2018-06-22T01:58:42.069Z,54.50
2018-06-22T02:01:10.415Z,54.40
2018-06-22T02:03:38.709Z,54.70
2018-06-22T02:06:07.057Z,55.20
2018-06-22T02:08:35.376Z,55.20
2018-06-22T02:11:03.705Z,55.40
2018-06-22T02:13:32.009Z,55.90
2018-06-22T02:16:00.333Z,55.40
2018-06-22T02:18:28.639Z,55.40
2018-06-22T02:20:56.988Z,55.00
2018-06-22T02:23:25.320Z,56.70
2018-06-22T02:25:53.617Z,55.80
2018-06-22T02:28:21.926Z,56.00
2018-06-22T02:30:50.257Z,55.40
2018-06-22T02:33:18.560Z,56.40
2018-06-22T02:35:46.870Z,57.80
2018-06-22T02:38:15.165Z,57.30
2018-06-22T02:40:43.549Z,58.40
2018-06-22T02:43:11.859Z,58.40
2018-06-22T02:45:40.174Z,58.70
2018-06-22T02:48:08.482Z,58.90
2018-06-22T02:50:36.793Z,59.40
2018-06-22T02:53:05.115Z,59.30
2018-06-22T02:55:33.418Z,59.30
2018-06-22T02:58:01.769Z,60.00
2018-06-22T03:00:30.121Z,60.50
2018-06-22T03:02:58.445Z,59.60
2018-06-22T03:05:26.782Z,60.00
2018-06-22T03:07:55.082Z,59.90
2018-06-22T03:10:23.397Z,60.50
2018-06-22T03:12:51.710Z,60.30
2018-06-22T03:15:20.035Z,60.40
2018-06-22T03:17:48.366Z,60.90
2018-06-22T03:20:16.682Z,60.90
2018-06-22T03:22:45.023Z,60.70
2018-06-22T03:25:13.317Z,60.60
2018-06-22T03:27:41.614Z,61.60
2018-06-22T03:30:09.950Z,60.90
2018-06-22T03:32:41.318Z,60.80
2018-06-22T03:35:09.613Z,61.10
2018-06-22T03:37:37.918Z,61.10
2018-06-22T03:40:06.249Z,60.90
2018-06-22T03:42:34.576Z,62.10
2018-06-22T03:45:02.910Z,61.40
2018-06-22T03:47:31.213Z,60.70
2018-06-22T03:49:59.557Z,60.30
2018-06-22T03:52:27.897Z,59.30
2018-06-22T03:54:56.215Z,59.00
2018-06-22T03:57:24.541Z,59.00
2018-06-22T03:59:52.849Z,58.30
2018-06-22T04:02:21.145Z,58.20
2018-06-22T04:04:49.497Z,57.40
2018-06-22T04:07:17.800Z,56.60
2018-06-22T04:09:46.121Z,56.40
2018-06-22T04:12:14.428Z,56.50
2018-06-22T04:14:42.754Z,56.30
2018-06-22T04:17:11.046Z,55.60
2018-06-22T04:19:39.353Z,54.80
2018-06-22T04:22:07.663Z,55.20
2018-06-22T04:24:35.986Z,55.60
2018-06-22T04:27:04.306Z,54.20
2018-06-22T04:29:32.598Z,54.80
2018-06-22T04:32:00.928Z,54.60
2018-06-22T04:34:29.224Z,54.10
2018-06-22T04:36:57.525Z,54.80
2018-06-22T04:39:25.845Z,55.00
2018-06-22T04:41:54.121Z,54.40
2018-06-22T04:44:22.415Z,54.00
2018-06-22T04:46:50.701Z,54.80
2018-06-22T04:49:18.986Z,55.70
2018-06-22T04:51:47.303Z,56.10
2018-06-22T04:54:15.625Z,55.80
2018-06-22T04:56:43.926Z,55.90
2018-06-22T04:59:12.260Z,56.60
2018-06-22T05:01:40.551Z,56.60
2018-06-22T05:04:08.842Z,56.70
2018-06-22T05:06:37.146Z,57.50
2018-06-22T05:09:07.265Z,56.60
2018-06-22T05:11:35.559Z,57.10
2018-06-22T05:14:03.907Z,57.30
2018-06-22T05:16:32.208Z,56.70
2018-06-22T05:19:00.541Z,56.50
2018-06-22T05:21:28.843Z,54.90
2018-06-22T05:23:57.134Z,54.90
2018-06-22T05:26:25.430Z,54.90
2018-06-22T05:28:53.759Z,54.80
2018-06-22T05:31:22.085Z,55.00
2018-06-22T05:33:50.423Z,55.10
2018-06-22T05:36:18.745Z,56.20
2018-06-22T05:38:47.045Z,54.90
2018-06-22T05:41:15.373Z,54.10
2018-06-22T05:43:43.713Z,54.50
2018-06-22T05:46:12.037Z,54.90
2018-06-22T05:48:40.362Z,55.80
2018-06-22T05:51:08.698Z,57.00
2018-06-22T05:53:36.995Z,56.60
2018-06-22T05:56:05.640Z,57.40
2018-06-22T05:58:33.970Z,57.70
2018-06-22T06:01:02.273Z,57.20
2018-06-22T06:03:30.617Z,56.20
2018-06-22T06:05:58.961Z,57.40
2018-06-22T06:08:27.294Z,59.00
2018-06-22T06:10:55.670Z,59.50
2018-06-22T06:13:23.992Z,57.50
2018-06-22T06:18:27.072Z,59.20
2018-06-22T06:20:58.330Z,57.40
2018-06-22T06:23:26.651Z,58.50
2018-06-22T06:25:54.969Z,57.40
2018-06-22T06:28:23.278Z,57.50
2018-06-22T06:30:51.597Z,57.60
2018-06-22T06:33:19.905Z,59.80
2018-06-22T06:35:48.233Z,60.40
2018-06-22T06:38:16.516Z,59.50
2018-06-22T06:40:44.862Z,59.20
2018-06-22T06:43:13.138Z,58.20
2018-06-22T06:45:41.445Z,58.80
2018-06-22T06:48:09.759Z,59.10
2018-06-22T06:50:38.119Z,57.90
2018-06-22T06:53:06.476Z,58.30
2018-06-22T06:55:34.889Z,59.20
2018-06-22T06:58:03.226Z,59.30
2018-06-22T07:00:31.562Z,56.10
2018-06-22T07:02:59.865Z,55.40
2018-06-22T07:05:28.177Z,56.00
2018-06-22T07:07:56.493Z,56.40
2018-06-22T07:10:24.813Z,57.40
2018-06-22T07:12:53.127Z,56.30
2018-06-22T07:15:21.449Z,56.50
2018-06-22T07:17:49.810Z,55.90
2018-06-22T07:20:18.127Z,54.30
2018-06-22T07:22:46.441Z,55.90
2018-06-22T07:25:14.765Z,56.80
2018-06-22T07:27:43.093Z,54.80
2018-06-22T07:30:11.429Z,54.60
2018-06-22T07:32:39.734Z,54.80
2018-06-22T07:35:08.090Z,56.20
2018-06-22T07:37:36.403Z,56.30
2018-06-22T07:40:04.729Z,54.10
2018-06-22T07:42:33.049Z,54.40
2018-06-22T07:45:01.368Z,53.60
2018-06-22T07:47:29.684Z,55.80
2018-06-22T07:49:57.986Z,54.10
2018-06-22T07:52:26.303Z,55.20
2018-06-22T07:54:54.649Z,55.60
2018-06-22T07:57:22.937Z,56.40
2018-06-22T07:59:51.250Z,53.80
2018-06-22T08:02:19.553Z,54.40
2018-06-22T08:04:47.894Z,55.40
2018-06-22T08:07:16.244Z,53.20
2018-06-22T08:09:44.558Z,52.40
2018-06-22T08:12:12.863Z,53.20
2018-06-22T08:14:41.162Z,52.80
2018-06-22T08:17:09.455Z,54.20
2018-06-22T08:19:37.755Z,55.10
2018-06-22T08:22:06.148Z,54.20
2018-06-22T08:24:34.529Z,54.60
2018-06-22T08:27:02.982Z,51.20
2018-06-22T08:29:31.313Z,52.80
2018-06-22T08:31:59.966Z,51.70
2018-06-22T08:34:28.274Z,52.40
2018-06-22T08:36:56.614Z,51.20
2018-06-22T08:39:24.932Z,50.10
2018-06-22T08:41:53.277Z,53.50
2018-06-22T08:44:21.549Z,52.80
2018-06-22T08:46:49.838Z,52.10
2018-06-22T08:49:18.140Z,51.20
2018-06-22T08:51:46.452Z,51.10
2018-06-22T08:54:14.761Z,51.70
2018-06-22T08:56:43.084Z,49.40
2018-06-22T08:59:11.402Z,49.00
2018-06-22T09:01:39.726Z,48.20
2018-06-22T09:04:08.143Z,51.00
2018-06-22T09:06:36.475Z,51.60
2018-06-22T09:09:07.175Z,46.60
2018-06-22T09:11:35.466Z,47.50
2018-06-22T09:14:03.828Z,48.80
2018-06-22T09:16:32.178Z,48.60
2018-06-22T09:19:00.491Z,49.00
2018-06-22T09:21:28.798Z,48.90
2018-06-22T09:23:57.433Z,49.90
2018-06-22T09:26:25.741Z,48.20
2018-06-22T09:28:54.090Z,47.40
2018-06-22T09:31:22.467Z,46.70
2018-06-22T09:33:50.732Z,47.60
2018-06-22T09:36:19.059Z,50.50
2018-06-22T09:38:47.390Z,49.70
2018-06-22T09:41:15.697Z,50.20
2018-06-22T09:43:44.022Z,48.20
2018-06-22T09:46:12.330Z,48.60
2018-06-22T09:48:40.629Z,48.50
2018-06-22T09:51:08.935Z,47.90
2018-06-22T09:53:37.264Z,49.00
2018-06-22T09:56:05.815Z,48.80
2018-06-22T09:58:34.154Z,45.50
2018-06-22T10:01:02.496Z,46.10
2018-06-22T10:03:30.837Z,45.80
2018-06-22T10:05:59.200Z,45.10
2018-06-22T10:08:27.468Z,44.90
2018-06-22T10:10:55.813Z,45.60
2018-06-22T10:13:24.109Z,47.60
2018-06-22T10:15:53.842Z,46.70
2018-06-22T10:18:23.234Z,45.70
2018-06-22T10:20:51.594Z,45.70
2018-06-22T10:23:19.881Z,48.60
2018-06-22T10:25:48.184Z,47.50
2018-06-22T10:28:16.581Z,46.40
2018-06-22T10:30:44.926Z,44.90
2018-06-22T10:33:13.262Z,45.90
2018-06-22T10:35:41.708Z,45.40
2018-06-22T10:38:10.014Z,45.60
2018-06-22T10:40:38.417Z,43.90
2018-06-22T10:43:07.309Z,43.60
2018-06-22T10:45:35.625Z,45.20
2018-06-22T10:48:03.972Z,46.50
2018-06-22T10:50:32.345Z,46.10
2018-06-22T10:53:00.702Z,44.90
2018-06-22T10:55:29.005Z,46.40
2018-06-22T10:57:57.333Z,45.30
2018-06-22T11:00:25.693Z,46.00
2018-06-22T11:02:54.042Z,44.60
2018-06-22T11:05:22.398Z,42.70
2018-06-22T11:07:50.753Z,41.30
2018-06-22T11:10:19.092Z,43.50
2018-06-22T11:12:47.424Z,44.90
2018-06-22T11:15:15.742Z,45.70
2018-06-22T11:17:44.080Z,44.00
2018-06-22T11:20:12.377Z,43.70
2018-06-22T11:22:40.701Z,43.90
2018-06-22T11:25:09.017Z,44.10
2018-06-22T11:27:37.350Z,45.80
2018-06-22T11:30:05.935Z,44.70
2018-06-22T11:32:34.237Z,46.60
2018-06-22T11:35:02.545Z,46.40
2018-06-22T11:37:30.847Z,43.80
2018-06-22T11:39:59.145Z,43.70
2018-06-22T11:42:27.472Z,44.30
2018-06-22T11:44:55.828Z,47.10
2018-06-22T11:47:24.189Z,45.00
2018-06-22T11:49:52.553Z,45.50
2018-06-22T11:52:20.847Z,47.50
2018-06-22T11:54:49.152Z,47.00
2018-06-22T11:57:17.477Z,46.40
2018-06-22T11:59:45.757Z,46.00
2018-06-22T12:02:14.061Z,44.50
2018-06-22T12:04:42.432Z,45.80
2018-06-22T12:07:10.713Z,48.10
2018-06-22T12:09:39.017Z,48.20
2018-06-22T12:12:07.361Z,48.10
2018-06-22T12:14:35.648Z,47.20
2018-06-22T12:17:03.998Z,48.20
2018-06-22T12:19:32.309Z,47.00
2018-06-22T12:22:00.637Z,46.70
2018-06-22T12:24:28.949Z,47.00
2018-06-22T12:26:57.293Z,47.00
2018-06-22T12:29:25.589Z,46.70
2018-06-22T12:31:53.885Z,47.70
2018-06-22T12:34:22.245Z,45.90
2018-06-22T12:36:50.532Z,45.90
2018-06-22T12:39:18.857Z,47.20
2018-06-22T12:41:47.172Z,46.00
2018-06-22T12:44:15.472Z,46.40
2018-06-22T12:49:11.770Z,48.80
2018-06-22T12:51:40.065Z,47.00
2018-06-22T12:54:08.373Z,46.30
2018-06-22T12:56:36.681Z,47.40
2018-06-22T12:59:04.995Z,46.40
2018-06-22T13:01:33.358Z,46.80
2018-06-22T13:04:01.719Z,47.10
2018-06-22T13:06:30.022Z,46.90
2018-06-22T13:08:58.370Z,46.20
2018-06-22T13:11:26.702Z,46.10
2018-06-22T13:13:55.066Z,46.20
2018-06-22T13:16:23.390Z,46.50
2018-06-22T13:18:51.737Z,45.80
2018-06-22T13:21:20.047Z,46.70
2018-06-22T13:23:48.362Z,47.20
2018-06-22T13:26:16.665Z,48.30
2018-06-22T13:28:45.000Z,47.00
2018-06-22T13:31:13.335Z,48.40
2018-06-22T13:33:41.662Z,48.00
2018-06-22T13:36:10.066Z,48.50
2018-06-22T13:38:38.628Z,47.70
2018-06-22T13:41:06.966Z,47.40
2018-06-22T13:43:35.288Z,47.30
2018-06-22T13:46:03.598Z,47.40
2018-06-22T13:48:31.885Z,48.00
2018-06-22T13:51:00.481Z,47.80
2018-06-22T13:53:28.814Z,47.80
2018-06-22T13:55:57.120Z,48.20
2018-06-22T13:58:25.454Z,49.00
2018-06-22T14:00:53.839Z,49.80
2018-06-22T14:03:22.134Z,49.30
2018-06-22T14:05:55.898Z,48.10
2018-06-22T14:08:24.202Z,49.70
2018-06-22T14:10:52.529Z,48.30
2018-06-22T14:13:21.229Z,48.20
2018-06-22T14:15:49.530Z,47.00
2018-06-22T14:18:17.834Z,48.30
2018-06-22T14:20:46.154Z,48.10
2018-06-22T14:23:14.493Z,47.10
2018-06-22T14:25:42.786Z,47.80
2018-06-22T14:28:11.093Z,46.90
2018-06-22T14:30:39.394Z,46.60
2018-06-22T14:33:07.713Z,47.10
2018-06-22T14:35:36.119Z,47.00
2018-06-22T14:38:04.492Z,44.90
2018-06-22T14:40:32.788Z,45.90
2018-06-22T14:43:01.081Z,45.00
2018-06-22T14:45:29.401Z,45.10
2018-06-22T14:47:57.689Z,45.10
2018-06-22T14:50:26.014Z,43.90
2018-06-22T14:52:54.343Z,43.80
2018-06-22T14:55:27.965Z,44.30
2018-06-22T14:58:01.789Z,43.80
2018-06-22T15:00:35.477Z,41.90
2018-06-22T15:03:09.146Z,42.10
2018-06-22T15:05:42.910Z,44.10
2018-06-22T15:08:14.360Z,42.80
2018-06-22T15:10:42.689Z,43.70
2018-06-22T15:13:11.007Z,43.10
2018-06-22T15:15:39.333Z,44.00
2018-06-22T15:18:07.674Z,45.60
2018-06-22T15:23:10.757Z,44.50
2018-06-22T15:25:39.062Z,43.80
2018-06-22T15:28:07.365Z,43.50
2018-06-22T15:33:03.762Z,43.10
2018-06-22T15:35:37.379Z,42.00
2018-06-22T15:38:17.828Z,43.40
2018-06-22T15:40:51.421Z,43.20
2018-06-22T15:43:25.054Z,42.20
2018-06-22T15:45:58.677Z,43.50
2018-06-22T15:48:32.249Z,41.80
2018-06-22T15:51:05.934Z,41.40
2018-06-22T15:53:39.617Z,41.80
2018-06-22T15:56:08.192Z,40.50
2018-06-22T15:58:36.553Z,35.20
2018-06-22T16:01:04.874Z,33.40
2018-06-22T16:03:38.609Z,31.40
2018-06-22T16:06:07.150Z,32.00
2018-06-22T16:08:35.516Z,31.90
2018-06-22T16:11:04.111Z,30.00
2018-06-22T16:13:32.378Z,29.30
2018-06-22T16:16:06.006Z,28.50
2018-06-22T16:18:45.277Z,28.60
2018-06-22T16:21:18.894Z,28.30
2018-06-22T16:23:52.588Z,27.90
2018-06-22T16:26:26.403Z,27.30
2018-06-22T16:28:54.744Z,27.40
2018-06-22T16:31:23.037Z,27.40
2018-06-22T16:33:55.973Z,26.90
2018-06-22T16:36:25.173Z,26.40
2018-06-22T16:38:53.643Z,25.80
2018-06-22T16:41:21.977Z,26.10
2018-06-22T16:43:50.395Z,25.80
2018-06-22T16:46:18.703Z,25.60
2018-06-22T16:51:15.068Z,25.90
2018-06-22T16:53:43.342Z,25.60
2018-06-22T16:56:11.664Z,26.20
2018-06-22T16:58:40.781Z,25.10
2018-06-22T17:01:10.398Z,24.00
2018-06-22T17:03:38.729Z,25.00
2018-06-22T17:06:07.766Z,24.90
2018-06-22T17:08:41.370Z,24.00
2018-06-22T17:11:14.976Z,24.70
2018-06-22T17:13:48.822Z,24.20
2018-06-22T17:16:22.574Z,23.80
2018-06-22T17:18:53.418Z,24.10
2018-06-22T17:21:22.298Z,24.50
2018-06-22T17:23:50.650Z,24.50
2018-06-22T17:26:18.941Z,24.70
2018-06-22T17:28:47.538Z,25.60
2018-06-22T17:31:15.876Z,25.80
2018-06-22T17:33:44.208Z,25.40
2018-06-22T17:36:12.522Z,25.80
2018-06-22T17:38:40.908Z,24.90
2018-06-22T17:41:09.294Z,25.70
2018-06-22T17:43:37.718Z,25.00
2018-06-22T17:46:06.206Z,25.60
2018-06-22T17:48:34.579Z,26.30
2018-06-22T17:51:02.886Z,26.00
2018-06-22T17:53:31.180Z,25.60
2018-06-22T17:55:59.488Z,25.80
2018-06-22T17:58:34.148Z,25.40
2018-06-22T18:01:07.810Z,25.90
2018-06-22T18:04:44.412Z,26.10
2018-06-22T18:07:18.590Z,26.20
2018-06-22T18:09:52.282Z,27.00
2018-06-22T18:12:26.129Z,26.60
2018-06-22T18:14:54.368Z,27.00
2018-06-22T18:17:22.644Z,27.60
2018-06-22T18:19:50.966Z,29.20
2018-06-22T18:22:19.290Z,29.40
2018-06-22T18:24:47.649Z,28.80
2018-06-22T18:27:16.019Z,29.40
2018-06-22T18:29:44.326Z,30.00
2018-06-22T18:32:12.649Z,30.00
2018-06-22T18:34:40.934Z,29.40
2018-06-22T18:37:09.269Z,29.90
2018-06-22T18:39:37.551Z,30.70
2018-06-22T18:42:05.907Z,33.00
2018-06-22T18:44:34.243Z,36.80
2018-06-22T18:47:03.283Z,36.80
2018-06-22T18:49:31.570Z,39.40
2018-06-22T18:52:05.207Z,41.00
2018-06-22T18:54:39.028Z,41.70
2018-06-22T18:57:12.712Z,42.40
2018-06-22T18:59:42.680Z,44.00
2018-06-22T19:02:16.270Z,44.20
2018-06-22T19:04:44.600Z,45.40
2018-06-22T19:07:12.891Z,45.70
2018-06-22T19:09:41.183Z,46.70
2018-06-22T19:12:09.515Z,46.80
2018-06-22T19:14:37.848Z,47.00
2018-06-22T19:17:06.194Z,47.50
2018-06-22T19:19:34.490Z,47.40
2018-06-22T19:22:02.796Z,48.00
2018-06-22T19:24:31.099Z,48.00
2018-06-22T19:26:59.412Z,48.40
2018-06-22T19:29:27.746Z,48.70
2018-06-22T19:31:56.026Z,49.30
2018-06-22T19:34:29.745Z,49.00
2018-06-22T19:36:58.045Z,49.20
2018-06-22T19:39:29.674Z,49.90
2018-06-22T19:41:57.980Z,49.50
2018-06-22T19:44:31.617Z,49.80
2018-06-22T19:47:05.427Z,50.50
2018-06-22T19:49:39.218Z,50.60
2018-06-22T19:52:13.009Z,50.20
2018-06-22T19:54:41.316Z,50.40
2018-06-22T19:57:09.636Z,51.30
2018-06-22T19:59:37.933Z,51.50
2018-06-22T20:02:06.247Z,51.00
2018-06-22T20:04:34.572Z,51.10
2018-06-22T20:07:02.873Z,51.40
2018-06-22T20:09:31.177Z,51.80
2018-06-22T20:11:59.485Z,51.80
2018-06-22T20:14:27.792Z,52.50
2018-06-22T20:16:56.129Z,53.10
2018-06-22T20:19:24.504Z,52.50
2018-06-22T20:21:52.812Z,53.10
2018-06-22T20:24:26.427Z,52.80
2018-06-22T20:26:54.751Z,53.40
2018-06-22T20:29:23.065Z,54.20
2018-06-22T20:31:54.400Z,53.90
2018-06-22T20:34:28.150Z,54.30
2018-06-22T20:37:01.810Z,53.80
2018-06-22T20:39:35.549Z,54.30
2018-06-22T20:42:09.266Z,54.30
2018-06-22T20:44:43.056Z,54.40
2018-06-22T20:47:17.501Z,54.70
2018-06-22T20:49:51.217Z,54.80
2018-06-22T20:52:19.518Z,54.90
2018-06-22T20:57:15.992Z,56.60
2018-06-22T20:59:44.312Z,56.70
2018-06-22T21:02:12.615Z,59.10
2018-06-22T21:04:40.936Z,60.50
2018-06-22T21:07:09.234Z,58.90
2018-06-22T21:09:37.525Z,59.90
2018-06-22T21:12:05.906Z,59.20
2018-06-22T21:14:34.246Z,59.40
2018-06-22T21:17:02.595Z,59.60
2018-06-22T21:19:30.874Z,61.10
2018-06-22T21:22:04.386Z,63.60
2018-06-22T21:24:32.829Z,64.70
2018-06-22T21:27:06.566Z,65.00
2018-06-22T21:29:40.290Z,65.30
2018-06-22T21:32:14.385Z,65.50
2018-06-22T21:34:47.924Z,65.40
2018-06-22T21:37:21.650Z,65.70
2018-06-22T21:39:49.992Z,66.00
2018-06-22T21:42:18.342Z,66.50
2018-06-22T21:44:46.674Z,66.10
2018-06-22T21:47:15.018Z,66.70
2018-06-22T21:49:43.331Z,67.20
2018-06-22T21:52:11.979Z,66.90
2018-06-22T21:54:40.546Z,66.40
2018-06-22T21:57:08.878Z,67.60
2018-06-22T21:59:37.175Z,67.90
2018-06-22T22:02:05.478Z,68.20
2018-06-22T22:04:33.811Z,68.50
2018-06-22T22:07:02.158Z,69.00
2018-06-22T22:09:35.815Z,69.60
2018-06-22T22:12:04.220Z,69.90
2018-06-22T22:14:32.465Z,69.90
2018-06-22T22:17:00.789Z,68.90
2018-06-22T22:19:29.170Z,68.60
2018-06-22T22:21:57.476Z,69.50
2018-06-22T22:24:25.782Z,69.30
2018-06-22T22:26:54.141Z,69.40
2018-06-22T22:29:22.466Z,69.30
2018-06-22T22:31:50.793Z,69.30
2018-06-22T22:34:19.105Z,69.90
2018-06-22T22:36:47.424Z,71.30
2018-06-22T22:39:15.745Z,71.60
2018-06-22T22:41:44.064Z,71.30
2018-06-22T22:44:12.493Z,70.90
2018-06-22T22:46:40.810Z,70.30
2018-06-22T22:49:09.140Z,70.70
2018-06-22T22:51:37.437Z,70.80
2018-06-22T22:54:05.771Z,71.60
2018-06-22T22:56:35.006Z,71.60
2018-06-22T22:59:03.313Z,72.00
2018-06-22T23:01:31.626Z,72.80
2018-06-22T23:03:59.930Z,72.80
2018-06-22T23:06:28.233Z,73.20
2018-06-22T23:08:56.567Z,73.10
2018-06-22T23:11:24.887Z,72.90
2018-06-22T23:13:53.191Z,73.20
2018-06-22T23:16:21.526Z,73.00
2018-06-22T23:18:49.826Z,73.20
2018-06-22T23:21:18.154Z,73.50
2018-06-22T23:23:46.509Z,72.90
2018-06-22T23:26:14.818Z,73.10
2018-06-22T23:28:43.158Z,73.40
2018-06-22T23:31:11.497Z,73.30
2018-06-22T23:33:39.812Z,72.40
2018-06-22T23:36:08.165Z,73.70
2018-06-22T23:38:36.538Z,73.40
2018-06-22T23:41:04.829Z,73.50
2018-06-22T23:43:33.461Z,73.70
2018-06-22T23:46:08.660Z,73.20
2018-06-22T23:48:36.960Z,72.80
2018-06-22T23:51:05.257Z,73.20
2018-06-22T23:53:33.589Z,74.00
2018-06-22T23:56:01.917Z,74.50
2018-06-22T23:58:30.276Z,75.00
